Monday, February 19, 2018, 10:01 AM GMT
Back to Local

CWTN, Cap Tourmente

Location: , , Canada Lat: 47.067
Local Time: 10:01 AM GMT (10:01 GMT) Lon: -70.8
Time Zone: GMT Elev: 19 ft

Show me the last for .
Show Coded

Time T Td Feel RH Dir Speed Gust Alt SLP Vis Weather Sky Remarks
2018-02-19 09:00 15 13 9 93 280° 3 - - 30.39 0 None
2018-02-19 08:00 16 13 11 88 290° 3 - - 30.39 0 None
2018-02-19 07:00 13 11 8 90 310° 3 - - 30.39 0 None
2018-02-19 06:00 14 12 - 89 320° 2 - - 30.40 0 None
2018-02-19 05:00 19 15 13 85 330° 3 - - 30.40 0 None
2018-02-19 04:00 16 14 10 90 340° 3 - - 30.40 0 None
2018-02-19 03:00 19 15 14 82 320° 3 - - 30.38 0 None
2018-02-19 02:00 21 16 - 82 310° 2 - - 30.38 0 None
2018-02-19 01:00 21 17 17 83 320° 3 - - 30.36 0 None
2018-02-19 00:00 22 18 - 83 230° 1 - - 30.34 0 None
2018-02-18 23:00 27 19 - 72 260° 2 - - 30.31 0 None
2018-02-18 22:00 31 21 26 66 280° 5 - - 30.27 0 Pressure rising rapidly
2018-02-18 21:00 32 22 28 67 210° 3 - - 30.20 0 None
2018-02-18 20:00 31 22 26 67 270° 6 - - 30.18 0 None
2018-02-18 19:00 31 21 23 64 280° 9 - - 30.16 0 None
2018-02-18 18:00 31 20 23 64 270° 9 - - 30.14 0 None
2018-02-18 17:00 32 20 25 61 270° 8 - - 30.12 0 None
2018-02-18 16:00 30 22 22 71 260° 9 - - 30.11 0 None
2018-02-18 15:00 28 21 20 75 260° 8 - - 30.09 0 None
2018-02-18 14:00 26 21 19 80 270° 7 - - 30.05 0 None
2018-02-18 13:00 23 21 17 91 270° 5 - - 30.03 0 None
2018-02-18 12:00 20 19 15 96 270° 3 - - 30.01 0 None
2018-02-18 11:00 21 20 - 96 270° 1 - - 29.99 0 None

Support USWX by starting your Amazon purchase here.